sensor_id;sensor_type;location;lat;lon;timestamp;P1;durP1;ratioP1;P2;durP2;ratioP2
13173;SDS011;6652;48.802;9.190;2023-03-17T00:00:45;13.95;;;6.63;;
13173;SDS011;6652;48.802;9.190;2023-03-17T00:03:15;10.30;;;6.07;;
13173;SDS011;6652;48.802;9.190;2023-03-17T00:05:46;21.63;;;6.70;;
13173;SDS011;6652;48.802;9.190;2023-03-17T00:08:15;11.80;;;6.55;;
13173;SDS011;6652;48.802;9.190;2023-03-17T00:10:45;8.90;;;4.13;;
13173;SDS011;6652;48.802;9.190;2023-03-17T00:13:12;16.05;;;5.80;;
13173;SDS011;6652;48.802;9.190;2023-03-17T00:15:41;8.48;;;5.68;;
13173;SDS011;6652;48.802;9.190;2023-03-17T00:18:09;14.93;;;6.25;;
13173;SDS011;6652;48.802;9.190;2023-03-17T00:20:39;12.77;;;5.35;;
13173;SDS011;6652;48.802;9.190;2023-03-17T00:23:07;11.48;;;6.53;;
13173;SDS011;6652;48.802;9.190;2023-03-17T00:25:40;10.25;;;5.45;;
13173;SDS011;6652;48.802;9.190;2023-03-17T00:28:09;16.08;;;5.90;;
13173;SDS011;6652;48.802;9.190;2023-03-17T00:30:42;14.57;;;6.35;;
13173;SDS011;6652;48.802;9.190;2023-03-17T00:33:10;10.88;;;5.50;;
13173;SDS011;6652;48.802;9.190;2023-03-17T00:35:37;16.33;;;5.50;;
13173;SDS011;6652;48.802;9.190;2023-03-17T00:38:05;12.80;;;6.20;;
13173;SDS011;6652;48.802;9.190;2023-03-17T00:40:32;13.07;;;5.70;;
13173;SDS011;6652;48.802;9.190;2023-03-17T00:42:59;9.90;;;5.70;;
13173;SDS011;6652;48.802;9.190;2023-03-17T00:45:27;10.32;;;5.78;;
13173;SDS011;6652;48.802;9.190;2023-03-17T00:47:55;13.00;;;6.07;;
13173;SDS011;6652;48.802;9.190;2023-03-17T00:50:24;10.18;;;5.72;;
13173;SDS011;6652;48.802;9.190;2023-03-17T00:52:53;13.00;;;6.32;;
13173;SDS011;6652;48.802;9.190;2023-03-17T00:55:22;11.77;;;5.97;;
13173;SDS011;6652;48.802;9.190;2023-03-17T00:57:50;9.00;;;5.53;;
13173;SDS011;6652;48.802;9.190;2023-03-17T01:00:19;16.58;;;6.07;;
13173;SDS011;6652;48.802;9.190;2023-03-17T01:02:50;12.50;;;5.90;;
13173;SDS011;6652;48.802;9.190;2023-03-17T01:05:19;10.43;;;5.50;;
13173;SDS011;6652;48.802;9.190;2023-03-17T01:07:48;12.30;;;5.45;;
13173;SDS011;6652;48.802;9.190;2023-03-17T01:10:18;14.75;;;5.97;;
13173;SDS011;6652;48.802;9.190;2023-03-17T01:12:48;12.40;;;5.72;;
13173;SDS011;6652;48.802;9.190;2023-03-17T01:15:15;11.18;;;5.55;;
13173;SDS011;6652;48.802;9.190;2023-03-17T01:17:42;9.98;;;5.32;;
13173;SDS011;6652;48.802;9.190;2023-03-17T01:20:11;11.00;;;5.35;;
13173;SDS011;6652;48.802;9.190;2023-03-17T01:22:43;10.07;;;5.82;;
13173;SDS011;6652;48.802;9.190;2023-03-17T01:25:10;11.10;;;5.40;;
13173;SDS011;6652;48.802;9.190;2023-03-17T01:27:37;9.45;;;5.40;;
13173;SDS011;6652;48.802;9.190;2023-03-17T01:30:06;14.43;;;5.47;;
13173;SDS011;6652;48.802;9.190;2023-03-17T01:32:42;12.30;;;5.38;;
13173;SDS011;6652;48.802;9.190;2023-03-17T01:35:09;18.00;;;7.03;;
13173;SDS011;6652;48.802;9.190;2023-03-17T01:37:36;8.55;;;4.70;;
13173;SDS011;6652;48.802;9.190;2023-03-17T01:40:05;10.07;;;5.38;;
13173;SDS011;6652;48.802;9.190;2023-03-17T01:42:33;11.80;;;6.25;;
13173;SDS011;6652;48.802;9.190;2023-03-17T01:45:01;9.07;;;5.28;;
13173;SDS011;6652;48.802;9.190;2023-03-17T01:47:31;10.27;;;6.15;;
13173;SDS011;6652;48.802;9.190;2023-03-17T01:49:58;12.65;;;5.53;;
13173;SDS011;6652;48.802;9.190;2023-03-17T01:52:30;11.07;;;5.28;;
13173;SDS011;6652;48.802;9.190;2023-03-17T01:55:00;8.93;;;5.45;;
13173;SDS011;6652;48.802;9.190;2023-03-17T01:57:32;18.88;;;6.45;;
13173;SDS011;6652;48.802;9.190;2023-03-17T02:00:04;13.43;;;4.85;;
13173;SDS011;6652;48.802;9.190;2023-03-17T02:02:33;11.15;;;5.85;;
13173;SDS011;6652;48.802;9.190;2023-03-17T02:05:02;11.30;;;5.80;;
13173;SDS011;6652;48.802;9.190;2023-03-17T02:07:31;9.23;;;5.55;;
13173;SDS011;6652;48.802;9.190;2023-03-17T02:09:58;10.50;;;5.03;;
13173;SDS011;6652;48.802;9.190;2023-03-17T02:12:25;11.20;;;5.38;;
13173;SDS011;6652;48.802;9.190;2023-03-17T02:14:55;11.60;;;5.28;;
13173;SDS011;6652;48.802;9.190;2023-03-17T02:17:24;13.75;;;5.57;;
13173;SDS011;6652;48.802;9.190;2023-03-17T02:19:53;8.73;;;5.40;;
13173;SDS011;6652;48.802;9.190;2023-03-17T02:22:22;10.38;;;5.40;;
13173;SDS011;6652;48.802;9.190;2023-03-17T02:24:50;9.73;;;4.85;;
13173;SDS011;6652;48.802;9.190;2023-03-17T02:27:21;10.10;;;5.50;;
13173;SDS011;6652;48.802;9.190;2023-03-17T02:29:51;11.68;;;6.05;;
13173;SDS011;6652;48.802;9.190;2023-03-17T02:32:18;9.48;;;5.95;;
13173;SDS011;6652;48.802;9.190;2023-03-17T02:34:46;10.88;;;5.95;;
13173;SDS011;6652;48.802;9.190;2023-03-17T02:37:14;12.68;;;5.63;;
13173;SDS011;6652;48.802;9.190;2023-03-17T02:39:43;9.80;;;5.65;;
13173;SDS011;6652;48.802;9.190;2023-03-17T02:42:10;12.32;;;5.50;;
13173;SDS011;6652;48.802;9.190;2023-03-17T02:44:38;9.63;;;5.53;;
13173;SDS011;6652;48.802;9.190;2023-03-17T02:47:05;12.40;;;6.57;;
13173;SDS011;6652;48.802;9.190;2023-03-17T02:49:33;11.32;;;6.00;;
13173;SDS011;6652;48.802;9.190;2023-03-17T02:52:01;12.90;;;6.40;;
13173;SDS011;6652;48.802;9.190;2023-03-17T02:54:28;17.95;;;6.47;;
13173;SDS011;6652;48.802;9.190;2023-03-17T02:56:56;11.23;;;5.00;;
13173;SDS011;6652;48.802;9.190;2023-03-17T02:59:23;15.45;;;5.80;;
13173;SDS011;6652;48.802;9.190;2023-03-17T03:01:50;10.65;;;5.25;;
13173;SDS011;6652;48.802;9.190;2023-03-17T03:04:17;14.15;;;6.30;;
13173;SDS011;6652;48.802;9.190;2023-03-17T03:06:45;14.10;;;5.57;;
13173;SDS011;6652;48.802;9.190;2023-03-17T03:09:12;14.43;;;6.95;;
13173;SDS011;6652;48.802;9.190;2023-03-17T03:11:42;14.63;;;6.90;;
13173;SDS011;6652;48.802;9.190;2023-03-17T03:14:11;10.77;;;6.20;;
13173;SDS011;6652;48.802;9.190;2023-03-17T03:16:38;12.60;;;6.22;;
13173;SDS011;6652;48.802;9.190;2023-03-17T03:19:05;13.45;;;6.85;;
13173;SDS011;6652;48.802;9.190;2023-03-17T03:21:33;10.32;;;6.25;;
13173;SDS011;6652;48.802;9.190;2023-03-17T03:24:00;15.45;;;6.20;;
13173;SDS011;6652;48.802;9.190;2023-03-17T03:26:27;11.93;;;6.90;;
13173;SDS011;6652;48.802;9.190;2023-03-17T03:28:54;15.18;;;7.55;;
13173;SDS011;6652;48.802;9.190;2023-03-17T03:31:25;13.13;;;6.28;;
13173;SDS011;6652;48.802;9.190;2023-03-17T03:33:52;15.35;;;6.32;;
13173;SDS011;6652;48.802;9.190;2023-03-17T03:36:19;11.70;;;6.78;;
13173;SDS011;6652;48.802;9.190;2023-03-17T03:38:46;16.23;;;6.38;;
13173;SDS011;6652;48.802;9.190;2023-03-17T03:41:13;15.10;;;6.10;;
13173;SDS011;6652;48.802;9.190;2023-03-17T03:43:40;13.38;;;7.07;;
13173;SDS011;6652;48.802;9.190;2023-03-17T03:46:07;18.60;;;6.25;;
13173;SDS011;6652;48.802;9.190;2023-03-17T03:48:35;17.73;;;6.57;;
13173;SDS011;6652;48.802;9.190;2023-03-17T03:51:02;13.77;;;6.53;;
13173;SDS011;6652;48.802;9.190;2023-03-17T03:53:29;17.33;;;6.35;;
13173;SDS011;6652;48.802;9.190;2023-03-17T03:55:56;11.63;;;6.57;;
13173;SDS011;6652;48.802;9.190;2023-03-17T03:58:23;12.77;;;6.10;;
13173;SDS011;6652;48.802;9.190;2023-03-17T04:00:50;11.57;;;6.28;;
13173;SDS011;6652;48.802;9.190;2023-03-17T04:03:17;14.27;;;6.35;;
13173;SDS011;6652;48.802;9.190;2023-03-17T04:05:45;15.60;;;7.60;;
13173;SDS011;6652;48.802;9.190;2023-03-17T04:08:12;15.68;;;6.32;;
13173;SDS011;6652;48.802;9.190;2023-03-17T04:10:39;14.88;;;6.22;;
13173;SDS011;6652;48.802;9.190;2023-03-17T04:13:05;17.90;;;6.70;;
13173;SDS011;6652;48.802;9.190;2023-03-17T04:15:33;17.42;;;6.93;;
13173;SDS011;6652;48.802;9.190;2023-03-17T04:17:59;13.75;;;6.82;;
13173;SDS011;6652;48.802;9.190;2023-03-17T04:20:26;19.40;;;6.63;;
13173;SDS011;6652;48.802;9.190;2023-03-17T04:22:54;12.45;;;6.18;;
13173;SDS011;6652;48.802;9.190;2023-03-17T04:25:21;14.88;;;6.70;;
13173;SDS011;6652;48.802;9.190;2023-03-17T04:27:48;15.25;;;6.65;;
13173;SDS011;6652;48.802;9.190;2023-03-17T04:30:15;19.95;;;7.70;;
13173;SDS011;6652;48.802;9.190;2023-03-17T04:32:42;13.80;;;7.35;;
13173;SDS011;6652;48.802;9.190;2023-03-17T04:35:11;12.15;;;6.40;;
13173;SDS011;6652;48.802;9.190;2023-03-17T04:37:39;17.48;;;6.78;;
13173;SDS011;6652;48.802;9.190;2023-03-17T04:40:08;14.18;;;6.55;;
13173;SDS011;6652;48.802;9.190;2023-03-17T04:42:37;13.27;;;7.03;;
13173;SDS011;6652;48.802;9.190;2023-03-17T04:45:05;14.15;;;7.15;;
13173;SDS011;6652;48.802;9.190;2023-03-17T04:47:35;11.10;;;6.38;;
13173;SDS011;6652;48.802;9.190;2023-03-17T04:50:02;13.10;;;6.80;;
13173;SDS011;6652;48.802;9.190;2023-03-17T04:52:32;11.90;;;6.70;;
13173;SDS011;6652;48.802;9.190;2023-03-17T04:54:58;12.77;;;6.68;;
13173;SDS011;6652;48.802;9.190;2023-03-17T04:57:27;18.10;;;7.18;;
13173;SDS011;6652;48.802;9.190;2023-03-17T04:59:54;16.40;;;8.02;;
13173;SDS011;6652;48.802;9.190;2023-03-17T05:02:24;13.15;;;7.18;;
13173;SDS011;6652;48.802;9.190;2023-03-17T05:04:52;17.02;;;7.10;;
13173;SDS011;6652;48.802;9.190;2023-03-17T05:07:19;12.73;;;6.68;;
13173;SDS011;6652;48.802;9.190;2023-03-17T05:09:46;13.77;;;6.80;;
13173;SDS011;6652;48.802;9.190;2023-03-17T05:12:13;11.82;;;6.53;;
13173;SDS011;6652;48.802;9.190;2023-03-17T05:14:41;12.57;;;6.85;;
13173;SDS011;6652;48.802;9.190;2023-03-17T05:17:08;13.10;;;7.40;;
13173;SDS011;6652;48.802;9.190;2023-03-17T05:19:35;14.55;;;7.65;;
13173;SDS011;6652;48.802;9.190;2023-03-17T05:22:02;17.75;;;7.22;;
13173;SDS011;6652;48.802;9.190;2023-03-17T05:24:29;10.73;;;6.80;;
13173;SDS011;6652;48.802;9.190;2023-03-17T05:26:56;21.67;;;9.55;;
13173;SDS011;6652;48.802;9.190;2023-03-17T05:29:23;16.15;;;7.18;;
13173;SDS011;6652;48.802;9.190;2023-03-17T05:31:51;15.55;;;7.13;;
13173;SDS011;6652;48.802;9.190;2023-03-17T05:34:18;17.38;;;7.30;;
13173;SDS011;6652;48.802;9.190;2023-03-17T05:36:45;9.73;;;6.68;;
13173;SDS011;6652;48.802;9.190;2023-03-17T05:39:12;13.60;;;7.38;;
13173;SDS011;6652;48.802;9.190;2023-03-17T05:41:38;15.55;;;7.15;;
13173;SDS011;6652;48.802;9.190;2023-03-17T05:44:05;14.60;;;6.93;;
13173;SDS011;6652;48.802;9.190;2023-03-17T05:46:32;15.32;;;7.45;;
13173;SDS011;6652;48.802;9.190;2023-03-17T05:49:15;15.63;;;7.57;;
13173;SDS011;6652;48.802;9.190;2023-03-17T05:51:43;13.98;;;7.43;;
13173;SDS011;6652;48.802;9.190;2023-03-17T05:54:10;15.75;;;6.13;;
13173;SDS011;6652;48.802;9.190;2023-03-17T05:56:37;17.23;;;6.85;;
13173;SDS011;6652;48.802;9.190;2023-03-17T05:59:04;15.25;;;6.47;;
13173;SDS011;6652;48.802;9.190;2023-03-17T06:01:31;18.63;;;6.70;;
13173;SDS011;6652;48.802;9.190;2023-03-17T06:03:58;13.73;;;7.25;;
13173;SDS011;6652;48.802;9.190;2023-03-17T06:06:27;26.42;;;8.38;;
13173;SDS011;6652;48.802;9.190;2023-03-17T06:08:54;11.30;;;6.22;;
13173;SDS011;6652;48.802;9.190;2023-03-17T06:11:20;16.25;;;6.65;;
13173;SDS011;6652;48.802;9.190;2023-03-17T06:13:47;13.63;;;6.25;;
13173;SDS011;6652;48.802;9.190;2023-03-17T06:16:14;12.68;;;5.97;;
13173;SDS011;6652;48.802;9.190;2023-03-17T06:18:41;21.23;;;6.18;;
13173;SDS011;6652;48.802;9.190;2023-03-17T06:21:12;14.77;;;6.68;;
13173;SDS011;6652;48.802;9.190;2023-03-17T06:23:40;21.63;;;7.07;;
13173;SDS011;6652;48.802;9.190;2023-03-17T06:26:07;14.27;;;7.05;;
13173;SDS011;6652;48.802;9.190;2023-03-17T06:28:34;15.10;;;6.45;;
13173;SDS011;6652;48.802;9.190;2023-03-17T06:31:03;16.02;;;6.70;;
13173;SDS011;6652;48.802;9.190;2023-03-17T06:33:30;16.88;;;7.03;;
13173;SDS011;6652;48.802;9.190;2023-03-17T06:35:56;20.25;;;7.82;;
13173;SDS011;6652;48.802;9.190;2023-03-17T06:38:24;18.08;;;6.80;;
13173;SDS011;6652;48.802;9.190;2023-03-17T06:40:52;14.63;;;7.50;;
13173;SDS011;6652;48.802;9.190;2023-03-17T06:43:19;18.02;;;7.90;;
13173;SDS011;6652;48.802;9.190;2023-03-17T06:45:48;17.17;;;7.25;;
13173;SDS011;6652;48.802;9.190;2023-03-17T06:48:15;22.17;;;7.97;;
13173;SDS011;6652;48.802;9.190;2023-03-17T06:50:42;24.63;;;8.73;;
13173;SDS011;6652;48.802;9.190;2023-03-17T06:53:11;15.55;;;6.55;;
13173;SDS011;6652;48.802;9.190;2023-03-17T06:55:38;15.57;;;7.18;;
13173;SDS011;6652;48.802;9.190;2023-03-17T06:58:08;18.33;;;6.57;;
13173;SDS011;6652;48.802;9.190;2023-03-17T07:00:37;12.85;;;5.60;;
13173;SDS011;6652;48.802;9.190;2023-03-17T07:03:04;11.40;;;6.13;;
13173;SDS011;6652;48.802;9.190;2023-03-17T07:05:31;10.52;;;6.80;;
13173;SDS011;6652;48.802;9.190;2023-03-17T07:07:58;14.35;;;5.90;;
13173;SDS011;6652;48.802;9.190;2023-03-17T07:10:25;16.48;;;6.97;;
13173;SDS011;6652;48.802;9.190;2023-03-17T07:12:52;20.52;;;6.90;;
13173;SDS011;6652;48.802;9.190;2023-03-17T07:15:20;14.70;;;6.55;;
13173;SDS011;6652;48.802;9.190;2023-03-17T07:17:48;28.77;;;7.05;;
13173;SDS011;6652;48.802;9.190;2023-03-17T07:20:15;25.23;;;7.03;;
13173;SDS011;6652;48.802;9.190;2023-03-17T07:22:42;21.38;;;7.53;;
13173;SDS011;6652;48.802;9.190;2023-03-17T07:25:09;16.88;;;6.88;;
13173;SDS011;6652;48.802;9.190;2023-03-17T07:27:36;17.20;;;6.63;;
13173;SDS011;6652;48.802;9.190;2023-03-17T07:30:04;13.95;;;6.30;;
13173;SDS011;6652;48.802;9.190;2023-03-17T07:32:33;20.10;;;6.88;;
13173;SDS011;6652;48.802;9.190;2023-03-17T07:35:00;13.70;;;6.35;;
13173;SDS011;6652;48.802;9.190;2023-03-17T07:37:28;15.38;;;5.85;;
13173;SDS011;6652;48.802;9.190;2023-03-17T07:39:55;19.58;;;5.70;;
13173;SDS011;6652;48.802;9.190;2023-03-17T07:42:22;16.60;;;6.20;;
13173;SDS011;6652;48.802;9.190;2023-03-17T07:44:49;15.88;;;5.80;;
13173;SDS011;6652;48.802;9.190;2023-03-17T07:47:16;20.27;;;5.97;;
13173;SDS011;6652;48.802;9.190;2023-03-17T07:49:44;12.27;;;5.57;;
13173;SDS011;6652;48.802;9.190;2023-03-17T07:52:14;13.27;;;5.13;;
13173;SDS011;6652;48.802;9.190;2023-03-17T07:54:41;9.18;;;5.07;;
13173;SDS011;6652;48.802;9.190;2023-03-17T07:57:08;13.55;;;5.13;;
13173;SDS011;6652;48.802;9.190;2023-03-17T07:59:36;9.48;;;5.32;;
13173;SDS011;6652;48.802;9.190;2023-03-17T08:02:04;11.00;;;5.47;;
13173;SDS011;6652;48.802;9.190;2023-03-17T08:04:30;11.40;;;5.50;;
13173;SDS011;6652;48.802;9.190;2023-03-17T08:06:59;19.75;;;5.60;;
13173;SDS011;6652;48.802;9.190;2023-03-17T08:09:27;13.32;;;5.57;;
13173;SDS011;6652;48.802;9.190;2023-03-17T08:11:54;16.38;;;5.40;;
13173;SDS011;6652;48.802;9.190;2023-03-17T08:14:21;14.25;;;5.82;;
13173;SDS011;6652;48.802;9.190;2023-03-17T08:16:47;14.70;;;6.18;;
13173;SDS011;6652;48.802;9.190;2023-03-17T08:19:14;11.77;;;5.35;;
13173;SDS011;6652;48.802;9.190;2023-03-17T08:21:41;10.82;;;5.30;;
13173;SDS011;6652;48.802;9.190;2023-03-17T08:24:09;9.68;;;4.70;;
13173;SDS011;6652;48.802;9.190;2023-03-17T08:26:36;11.75;;;4.95;;
13173;SDS011;6652;48.802;9.190;2023-03-17T08:29:03;8.95;;;4.90;;
13173;SDS011;6652;48.802;9.190;2023-03-17T08:31:30;13.07;;;4.80;;
13173;SDS011;6652;48.802;9.190;2023-03-17T08:33:57;15.25;;;5.30;;
13173;SDS011;6652;48.802;9.190;2023-03-17T08:36:26;11.27;;;5.53;;
13173;SDS011;6652;48.802;9.190;2023-03-17T08:38:54;17.02;;;6.05;;
13173;SDS011;6652;48.802;9.190;2023-03-17T08:41:23;14.80;;;6.03;;
13173;SDS011;6652;48.802;9.190;2023-03-17T08:43:52;13.55;;;6.18;;
13173;SDS011;6652;48.802;9.190;2023-03-17T08:46:21;13.75;;;5.95;;
13173;SDS011;6652;48.802;9.190;2023-03-17T08:48:50;16.67;;;6.10;;
13173;SDS011;6652;48.802;9.190;2023-03-17T08:51:18;14.60;;;6.22;;
13173;SDS011;6652;48.802;9.190;2023-03-17T08:53:46;18.48;;;6.32;;
13173;SDS011;6652;48.802;9.190;2023-03-17T08:56:14;13.50;;;6.28;;
13173;SDS011;6652;48.802;9.190;2023-03-17T08:58:42;12.93;;;5.32;;
13173;SDS011;6652;48.802;9.190;2023-03-17T09:01:10;14.00;;;5.53;;
13173;SDS011;6652;48.802;9.190;2023-03-17T09:03:37;14.20;;;5.50;;
13173;SDS011;6652;48.802;9.190;2023-03-17T09:06:05;12.57;;;5.45;;
13173;SDS011;6652;48.802;9.190;2023-03-17T09:08:33;10.13;;;4.82;;
13173;SDS011;6652;48.802;9.190;2023-03-17T09:11:02;11.95;;;5.15;;
13173;SDS011;6652;48.802;9.190;2023-03-17T09:13:29;7.55;;;4.28;;
13173;SDS011;6652;48.802;9.190;2023-03-17T09:15:57;14.63;;;5.00;;
13173;SDS011;6652;48.802;9.190;2023-03-17T09:18:25;15.55;;;4.85;;
13173;SDS011;6652;48.802;9.190;2023-03-17T09:20:52;13.57;;;5.07;;
13173;SDS011;6652;48.802;9.190;2023-03-17T09:23:19;13.80;;;4.97;;
13173;SDS011;6652;48.802;9.190;2023-03-17T09:25:47;14.95;;;5.93;;
13173;SDS011;6652;48.802;9.190;2023-03-17T09:28:14;16.85;;;5.72;;
13173;SDS011;6652;48.802;9.190;2023-03-17T09:30:41;13.30;;;5.38;;
13173;SDS011;6652;48.802;9.190;2023-03-17T09:33:10;12.20;;;5.35;;
13173;SDS011;6652;48.802;9.190;2023-03-17T09:35:37;13.10;;;4.97;;
13173;SDS011;6652;48.802;9.190;2023-03-17T09:38:06;7.80;;;4.85;;
13173;SDS011;6652;48.802;9.190;2023-03-17T09:40:35;10.00;;;5.22;;
13173;SDS011;6652;48.802;9.190;2023-03-17T09:43:06;9.40;;;4.78;;
13173;SDS011;6652;48.802;9.190;2023-03-17T09:45:43;18.70;;;5.95;;
13173;SDS011;6652;48.802;9.190;2023-03-17T09:48:17;11.68;;;5.60;;
13173;SDS011;6652;48.802;9.190;2023-03-17T09:50:57;14.02;;;4.47;;
13173;SDS011;6652;48.802;9.190;2023-03-17T09:53:29;18.35;;;4.65;;
13173;SDS011;6652;48.802;9.190;2023-03-17T09:56:00;16.38;;;3.95;;
13173;SDS011;6652;48.802;9.190;2023-03-17T09:58:32;11.18;;;4.10;;
13173;SDS011;6652;48.802;9.190;2023-03-17T10:01:00;6.28;;;3.78;;
13173;SDS011;6652;48.802;9.190;2023-03-17T10:03:30;8.52;;;4.40;;
13173;SDS011;6652;48.802;9.190;2023-03-17T10:06:06;14.95;;;4.10;;
13173;SDS011;6652;48.802;9.190;2023-03-17T10:08:43;12.68;;;3.75;;
13173;SDS011;6652;48.802;9.190;2023-03-17T10:11:17;10.70;;;3.58;;
13173;SDS011;6652;48.802;9.190;2023-03-17T10:13:53;6.53;;;3.80;;
13173;SDS011;6652;48.802;9.190;2023-03-17T10:16:26;6.22;;;3.83;;
13173;SDS011;6652;48.802;9.190;2023-03-17T10:19:01;13.48;;;4.13;;
13173;SDS011;6652;48.802;9.190;2023-03-17T10:21:37;8.70;;;3.50;;
13173;SDS011;6652;48.802;9.190;2023-03-17T10:24:08;14.13;;;4.18;;
13173;SDS011;6652;48.802;9.190;2023-03-17T10:26:36;16.13;;;4.72;;
13173;SDS011;6652;48.802;9.190;2023-03-17T10:29:09;9.23;;;3.97;;
13173;SDS011;6652;48.802;9.190;2023-03-17T10:31:38;9.05;;;3.80;;
13173;SDS011;6652;48.802;9.190;2023-03-17T10:34:12;10.80;;;3.75;;
13173;SDS011;6652;48.802;9.190;2023-03-17T10:36:41;15.05;;;4.13;;
13173;SDS011;6652;48.802;9.190;2023-03-17T10:39:12;11.55;;;3.90;;
13173;SDS011;6652;48.802;9.190;2023-03-17T10:41:40;6.50;;;3.25;;
13173;SDS011;6652;48.802;9.190;2023-03-17T10:44:20;9.25;;;3.30;;
13173;SDS011;6652;48.802;9.190;2023-03-17T10:46:53;8.35;;;3.35;;
13173;SDS011;6652;48.802;9.190;2023-03-17T10:49:22;6.60;;;3.20;;
13173;SDS011;6652;48.802;9.190;2023-03-17T10:51:50;9.98;;;3.35;;
13173;SDS011;6652;48.802;9.190;2023-03-17T10:54:20;10.63;;;2.97;;
13173;SDS011;6652;48.802;9.190;2023-03-17T10:56:53;7.57;;;3.22;;
13173;SDS011;6652;48.802;9.190;2023-03-17T10:59:26;6.38;;;3.17;;
13173;SDS011;6652;48.802;9.190;2023-03-17T11:01:56;11.30;;;3.17;;
13173;SDS011;6652;48.802;9.190;2023-03-17T11:04:27;12.70;;;3.08;;
13173;SDS011;6652;48.802;9.190;2023-03-17T11:06:57;5.95;;;3.20;;
13173;SDS011;6652;48.802;9.190;2023-03-17T11:09:26;7.25;;;3.00;;
13173;SDS011;6652;48.802;9.190;2023-03-17T11:11:59;10.38;;;2.63;;
13173;SDS011;6652;48.802;9.190;2023-03-17T11:14:28;7.22;;;2.90;;
13173;SDS011;6652;48.802;9.190;2023-03-17T11:16:56;11.10;;;3.20;;
13173;SDS011;6652;48.802;9.190;2023-03-17T11:19:28;6.53;;;2.60;;
13173;SDS011;6652;48.802;9.190;2023-03-17T11:22:03;9.35;;;2.70;;
13173;SDS011;6652;48.802;9.190;2023-03-17T11:24:37;8.63;;;2.70;;
13173;SDS011;6652;48.802;9.190;2023-03-17T11:27:17;4.80;;;2.65;;
13173;SDS011;6652;48.802;9.190;2023-03-17T11:29:59;6.57;;;2.90;;
13173;SDS011;6652;48.802;9.190;2023-03-17T11:32:45;10.35;;;2.60;;
13173;SDS011;6652;48.802;9.190;2023-03-17T11:35:26;5.38;;;2.47;;
13173;SDS011;6652;48.802;9.190;2023-03-17T11:38:12;5.85;;;3.03;;
13173;SDS011;6652;48.802;9.190;2023-03-17T11:40:52;4.72;;;2.50;;
13173;SDS011;6652;48.802;9.190;2023-03-17T11:43:33;6.35;;;2.53;;
13173;SDS011;6652;48.802;9.190;2023-03-17T11:46:06;8.07;;;2.50;;
13173;SDS011;6652;48.802;9.190;2023-03-17T11:48:39;5.88;;;2.67;;
13173;SDS011;6652;48.802;9.190;2023-03-17T11:51:16;7.68;;;2.20;;
13173;SDS011;6652;48.802;9.190;2023-03-17T11:53:49;8.45;;;2.63;;
13173;SDS011;6652;48.802;9.190;2023-03-17T11:56:37;10.82;;;2.97;;
13173;SDS011;6652;48.802;9.190;2023-03-17T11:59:12;8.10;;;2.60;;
13173;SDS011;6652;48.802;9.190;2023-03-17T12:01:47;6.22;;;2.47;;
13173;SDS011;6652;48.802;9.190;2023-03-17T12:04:24;7.35;;;2.78;;
13173;SDS011;6652;48.802;9.190;2023-03-17T12:07:00;8.48;;;2.30;;
13173;SDS011;6652;48.802;9.190;2023-03-17T12:09:36;8.57;;;2.67;;
13173;SDS011;6652;48.802;9.190;2023-03-17T12:12:06;3.67;;;1.98;;
13173;SDS011;6652;48.802;9.190;2023-03-17T12:14:39;7.88;;;2.80;;
13173;SDS011;6652;48.802;9.190;2023-03-17T12:17:10;8.98;;;2.15;;
13173;SDS011;6652;48.802;9.190;2023-03-17T12:19:54;6.45;;;2.65;;
13173;SDS011;6652;48.802;9.190;2023-03-17T12:22:33;5.00;;;2.22;;
13173;SDS011;6652;48.802;9.190;2023-03-17T12:25:09;11.00;;;2.50;;
13173;SDS011;6652;48.802;9.190;2023-03-17T12:27:43;9.95;;;2.33;;
13173;SDS011;6652;48.802;9.190;2023-03-17T12:30:20;5.65;;;2.45;;
13173;SDS011;6652;48.802;9.190;2023-03-17T12:32:55;5.82;;;2.47;;
13173;SDS011;6652;48.802;9.190;2023-03-17T12:35:28;5.50;;;2.40;;
13173;SDS011;6652;48.802;9.190;2023-03-17T12:38:03;12.70;;;2.47;;
13173;SDS011;6652;48.802;9.190;2023-03-17T12:40:36;10.70;;;2.60;;
13173;SDS011;6652;48.802;9.190;2023-03-17T12:43:26;10.98;;;2.03;;
13173;SDS011;6652;48.802;9.190;2023-03-17T12:46:16;8.35;;;2.20;;
13173;SDS011;6652;48.802;9.190;2023-03-17T12:52:12;7.32;;;1.80;;
13173;SDS011;6652;48.802;9.190;2023-03-17T12:54:49;5.97;;;1.95;;
13173;SDS011;6652;48.802;9.190;2023-03-17T12:57:18;4.28;;;1.98;;
13173;SDS011;6652;48.802;9.190;2023-03-17T12:59:48;6.05;;;1.95;;
13173;SDS011;6652;48.802;9.190;2023-03-17T13:02:30;7.18;;;2.35;;
13173;SDS011;6652;48.802;9.190;2023-03-17T13:05:04;7.85;;;2.20;;
13173;SDS011;6652;48.802;9.190;2023-03-17T13:07:36;6.00;;;2.47;;
13173;SDS011;6652;48.802;9.190;2023-03-17T13:10:18;4.30;;;1.90;;
13173;SDS011;6652;48.802;9.190;2023-03-17T13:13:05;5.93;;;2.15;;
13173;SDS011;6652;48.802;9.190;2023-03-17T13:15:51;4.95;;;2.10;;
13173;SDS011;6652;48.802;9.190;2023-03-17T13:18:26;10.32;;;2.40;;
13173;SDS011;6652;48.802;9.190;2023-03-17T13:21:11;7.00;;;2.60;;
13173;SDS011;6652;48.802;9.190;2023-03-17T13:23:40;5.93;;;2.15;;
13173;SDS011;6652;48.802;9.190;2023-03-17T13:26:14;7.18;;;2.97;;
13173;SDS011;6652;48.802;9.190;2023-03-17T13:28:45;5.88;;;1.92;;
13173;SDS011;6652;48.802;9.190;2023-03-17T13:31:14;5.70;;;1.60;;
13173;SDS011;6652;48.802;9.190;2023-03-17T13:34:01;8.45;;;1.63;;
13173;SDS011;6652;48.802;9.190;2023-03-17T13:36:36;4.15;;;1.88;;
13173;SDS011;6652;48.802;9.190;2023-03-17T13:45:12;3.42;;;1.58;;
13173;SDS011;6652;48.802;9.190;2023-03-17T13:47:46;7.47;;;1.70;;
13173;SDS011;6652;48.802;9.190;2023-03-17T13:50:20;9.13;;;2.05;;
13173;SDS011;6652;48.802;9.190;2023-03-17T13:55:33;6.07;;;2.00;;
13173;SDS011;6652;48.802;9.190;2023-03-17T13:58:17;10.35;;;2.70;;
13173;SDS011;6652;48.802;9.190;2023-03-17T14:00:58;4.97;;;1.80;;
13173;SDS011;6652;48.802;9.190;2023-03-17T14:03:32;6.43;;;1.27;;
13173;SDS011;6652;48.802;9.190;2023-03-17T14:06:04;4.78;;;1.70;;
13173;SDS011;6652;48.802;9.190;2023-03-17T14:08:33;3.67;;;1.40;;
13173;SDS011;6652;48.802;9.190;2023-03-17T14:11:03;4.13;;;1.60;;
13173;SDS011;6652;48.802;9.190;2023-03-17T14:13:36;5.78;;;1.52;;
13173;SDS011;6652;48.802;9.190;2023-03-17T14:16:11;3.75;;;1.73;;
13173;SDS011;6652;48.802;9.190;2023-03-17T14:18:42;4.43;;;1.50;;
13173;SDS011;6652;48.802;9.190;2023-03-17T14:21:18;4.05;;;1.42;;
13173;SDS011;6652;48.802;9.190;2023-03-17T14:23:53;6.43;;;1.48;;
13173;SDS011;6652;48.802;9.190;2023-03-17T14:26:22;4.82;;;1.63;;
13173;SDS011;6652;48.802;9.190;2023-03-17T14:28:51;4.55;;;1.00;;
13173;SDS011;6652;48.802;9.190;2023-03-17T14:31:20;4.57;;;1.35;;
13173;SDS011;6652;48.802;9.190;2023-03-17T14:33:50;1.58;;;1.10;;
13173;SDS011;6652;48.802;9.190;2023-03-17T14:36:19;2.00;;;1.20;;
13173;SDS011;6652;48.802;9.190;2023-03-17T14:38:46;9.07;;;1.83;;
13173;SDS011;6652;48.802;9.190;2023-03-17T14:41:15;3.55;;;1.55;;
13173;SDS011;6652;48.802;9.190;2023-03-17T14:43:44;9.13;;;1.65;;
13173;SDS011;6652;48.802;9.190;2023-03-17T14:46:13;10.90;;;1.73;;
13173;SDS011;6652;48.802;9.190;2023-03-17T14:48:43;4.45;;;1.17;;
13173;SDS011;6652;48.802;9.190;2023-03-17T14:51:15;2.63;;;1.13;;
13173;SDS011;6652;48.802;9.190;2023-03-17T14:57:14;4.95;;;1.60;;
13173;SDS011;6652;48.802;9.190;2023-03-17T14:59:41;3.35;;;1.60;;
13173;SDS011;6652;48.802;9.190;2023-03-17T15:02:22;3.95;;;1.45;;
13173;SDS011;6652;48.802;9.190;2023-03-17T15:04:54;4.18;;;1.25;;
13173;SDS011;6652;48.802;9.190;2023-03-17T15:07:30;7.10;;;1.80;;
13173;SDS011;6652;48.802;9.190;2023-03-17T15:10:00;2.83;;;1.20;;
13173;SDS011;6652;48.802;9.190;2023-03-17T15:12:29;3.90;;;1.30;;
13173;SDS011;6652;48.802;9.190;2023-03-17T15:14:57;4.30;;;1.50;;
13173;SDS011;6652;48.802;9.190;2023-03-17T15:17:29;3.70;;;1.38;;
13173;SDS011;6652;48.802;9.190;2023-03-17T15:19:59;3.83;;;1.80;;
13173;SDS011;6652;48.802;9.190;2023-03-17T15:22:30;3.05;;;1.50;;
13173;SDS011;6652;48.802;9.190;2023-03-17T15:25:17;9.13;;;1.35;;